Startup, Washington
Current Conditions -  °F | °C
As of 3:53 AM on Monday 20 Oct 2014 (Local Time) from KPAE Reporting Station
Light Rain Light Rain  
Wind Chill: 14°   Ceiling: 8000
Heat Index: 14°   Visibility: 6mi
Dew Point: 13°   Wind: 10mph
Humidity: 90%   Direction: 150°SSE
Pressure: 29.7"   Gusts: 21mph
Location:  47.87°N, 121.74°W
Report Text: KPAE 201053Z AUTO 15009G18KT 100V170 6SM -RA BR FEW022 BKN080 OVC095 14/13 A2970 RMK AO2 SLP054 P0005 T01440128
Loading
Personal Weather Stations






























Interactive Weather Map
Tropical Storm Tracking
New forecast layout! Learn more

10-Day Weather Forecast

Advertisements
Track Severe Weather on mobile